createdAt,value
2023-01-04T00:02:09.716Z,7.55
2023-01-04T00:04:38.212Z,7.45
2023-01-04T00:07:06.687Z,7.45
2023-01-04T00:09:35.036Z,7.42
2023-01-04T00:12:03.417Z,7.38
2023-01-04T00:14:31.760Z,7.35
2023-01-04T00:17:00.047Z,7.38
2023-01-04T00:19:29.738Z,7.40
2023-01-04T00:21:58.053Z,7.42
2023-01-04T00:24:26.355Z,7.43
2023-01-04T00:26:54.784Z,7.43
2023-01-04T00:29:23.224Z,7.40
2023-01-04T00:31:51.658Z,7.34
2023-01-04T00:34:20.190Z,7.35
2023-01-04T00:36:50.180Z,7.36
2023-01-04T00:39:19.075Z,7.34
2023-01-04T00:41:58.704Z,7.34
2023-01-04T00:44:28.339Z,7.37
2023-01-04T00:46:57.021Z,7.38
2023-01-04T00:49:25.645Z,7.39
2023-01-04T00:51:55.934Z,7.38
2023-01-04T00:54:24.297Z,7.37
2023-01-04T00:56:53.487Z,7.36
2023-01-04T00:59:22.691Z,7.36
2023-01-04T01:01:51.873Z,7.37
2023-01-04T01:04:22.761Z,7.36
2023-01-04T01:06:52.176Z,7.39
2023-01-04T01:09:23.556Z,7.41
2023-01-04T01:11:53.199Z,7.40
2023-01-04T01:14:22.974Z,7.30
2023-01-04T01:16:55.995Z,7.14
2023-01-04T01:19:25.538Z,6.90
2023-01-04T01:21:53.974Z,6.73
2023-01-04T01:24:23.781Z,6.74
2023-01-04T01:26:52.184Z,6.80
2023-01-04T01:29:21.492Z,6.87
2023-01-04T01:31:49.931Z,6.88
2023-01-04T01:34:18.418Z,6.90
2023-01-04T01:36:46.835Z,6.92
2023-01-04T01:39:15.409Z,6.90
2023-01-04T01:41:45.125Z,6.86
2023-01-04T01:44:50.756Z,6.78
2023-01-04T01:47:22.749Z,6.73
2023-01-04T01:49:54.681Z,6.66
2023-01-04T01:52:26.950Z,6.65
2023-01-04T01:54:59.265Z,6.57
2023-01-04T01:57:33.154Z,6.55
2023-01-04T02:00:07.637Z,6.53
2023-01-04T02:02:36.682Z,6.52
2023-01-04T02:05:05.878Z,6.53
2023-01-04T02:07:36.558Z,6.52
2023-01-04T02:10:05.533Z,6.46
2023-01-04T02:12:35.347Z,6.48
2023-01-04T02:15:03.932Z,6.52
2023-01-04T02:17:40.289Z,6.50
2023-01-04T02:20:46.968Z,6.52
2023-01-04T02:23:49.504Z,6.50
2023-01-04T02:26:57.877Z,6.47
2023-01-04T02:30:12.536Z,6.34
2023-01-04T02:32:54.860Z,6.24
2023-01-04T02:35:29.887Z,6.25
2023-01-04T02:38:06.973Z,6.10
2023-01-04T02:40:47.900Z,5.97
2023-01-04T02:43:41.961Z,5.93
2023-01-04T02:46:15.776Z,5.95
2023-01-04T02:49:03.241Z,5.95
2023-01-04T02:51:33.578Z,5.98
2023-01-04T02:54:05.924Z,6.02
2023-01-04T02:56:49.222Z,6.05
2023-01-04T02:59:36.675Z,5.97
2023-01-04T03:02:40.333Z,5.78
2023-01-04T03:05:40.177Z,5.62
2023-01-04T03:08:17.181Z,5.51
2023-01-04T03:10:51.106Z,5.46
2023-01-04T03:13:23.341Z,5.28
2023-01-04T03:15:55.840Z,5.16
2023-01-04T03:18:28.110Z,5.11
2023-01-04T03:21:00.305Z,4.98
2023-01-04T03:23:51.128Z,5.03
2023-01-04T03:26:39.029Z,5.08
2023-01-04T03:29:47.019Z,5.15
2023-01-04T03:32:39.662Z,5.14
2023-01-04T03:35:28.269Z,5.12
2023-01-04T03:38:19.844Z,5.14
2023-01-04T03:41:15.007Z,5.11
2023-01-04T03:44:07.974Z,5.05
2023-01-04T03:46:59.886Z,4.89
2023-01-04T03:49:32.416Z,4.71
2023-01-04T03:52:05.100Z,4.68
2023-01-04T03:54:38.547Z,4.78
2023-01-04T03:57:12.312Z,4.82
2023-01-04T03:59:46.066Z,4.84
2023-01-04T04:02:19.487Z,4.84
2023-01-04T04:05:05.353Z,4.82
2023-01-04T04:07:51.261Z,4.72
2023-01-04T04:10:20.938Z,4.67
2023-01-04T04:12:49.332Z,4.60
2023-01-04T04:15:17.792Z,4.50
2023-01-04T04:17:46.144Z,4.53
2023-01-04T04:20:14.789Z,4.54
2023-01-04T04:22:43.525Z,4.54
2023-01-04T04:25:11.875Z,4.45
2023-01-04T04:27:41.554Z,4.49
2023-01-04T04:30:10.782Z,4.54
2023-01-04T04:32:39.076Z,4.60
2023-01-04T04:35:07.837Z,4.64
2023-01-04T04:37:37.256Z,4.65
2023-01-04T04:40:06.731Z,4.66
2023-01-04T04:42:34.363Z,4.59
2023-01-04T04:45:04.076Z,4.56
2023-01-04T04:47:32.403Z,4.52
2023-01-04T04:50:00.749Z,4.40
2023-01-04T04:52:29.089Z,4.31
2023-01-04T04:54:57.407Z,4.33
2023-01-04T04:57:25.817Z,4.34
2023-01-04T04:59:54.385Z,4.40
2023-01-04T05:02:24.213Z,4.41
2023-01-04T05:04:52.587Z,4.41
2023-01-04T05:07:20.912Z,4.39
2023-01-04T05:09:49.510Z,4.26
2023-01-04T05:12:35.548Z,4.29
2023-01-04T05:15:04.099Z,4.25
2023-01-04T05:17:34.111Z,4.23
2023-01-04T05:20:02.609Z,4.30
2023-01-04T05:22:31.128Z,4.25
2023-01-04T05:24:59.474Z,4.07
2023-01-04T05:27:27.983Z,4.01
2023-01-04T05:30:14.007Z,4.00
2023-01-04T05:32:44.621Z,3.88
2023-01-04T05:35:13.010Z,3.95
2023-01-04T05:37:41.327Z,3.98
2023-01-04T05:40:10.795Z,3.95
2023-01-04T05:42:39.275Z,4.04
2023-01-04T05:45:08.383Z,4.04
2023-01-04T05:47:41.624Z,4.04
2023-01-04T05:50:12.327Z,4.00
2023-01-04T05:52:40.649Z,4.05
2023-01-04T05:55:09.568Z,4.07
2023-01-04T05:57:38.003Z,4.09
2023-01-04T06:00:08.400Z,4.12
2023-01-04T06:02:37.436Z,4.13
2023-01-04T06:05:06.826Z,4.13
2023-01-04T06:07:36.553Z,4.10
2023-01-04T06:10:05.333Z,3.99
2023-01-04T06:12:33.817Z,3.88
2023-01-04T06:15:02.343Z,3.80
2023-01-04T06:17:30.709Z,3.83
2023-01-04T06:19:59.124Z,3.74
2023-01-04T06:22:30.112Z,3.68
2023-01-04T06:24:59.878Z,3.79
2023-01-04T06:27:28.512Z,3.82
2023-01-04T06:29:56.881Z,3.88
2023-01-04T06:32:25.181Z,3.92
2023-01-04T06:34:54.105Z,3.97
2023-01-04T06:37:22.433Z,4.00
2023-01-04T06:39:50.882Z,4.01
2023-01-04T06:42:38.217Z,4.05
2023-01-04T06:45:07.676Z,3.93
2023-01-04T06:47:36.471Z,3.84
2023-01-04T06:50:05.594Z,3.63
2023-01-04T06:52:34.030Z,3.60
2023-01-04T06:55:02.594Z,3.58
2023-01-04T06:57:32.406Z,3.48
2023-01-04T07:00:00.736Z,3.52
2023-01-04T07:02:29.187Z,3.60
2023-01-04T07:04:57.679Z,3.65
2023-01-04T07:07:26.126Z,3.72
2023-01-04T07:09:54.658Z,3.56
2023-01-04T07:12:22.972Z,3.40
2023-01-04T07:14:52.765Z,3.33
2023-01-04T07:17:24.978Z,3.37
2023-01-04T07:19:58.177Z,3.33
2023-01-04T07:22:26.675Z,3.34
2023-01-04T07:24:54.974Z,3.43
2023-01-04T07:27:23.313Z,3.44
2023-01-04T07:29:53.074Z,3.50
2023-01-04T07:32:21.453Z,3.62
2023-01-04T07:34:49.837Z,3.72
2023-01-04T07:37:18.321Z,3.78
2023-01-04T07:39:48.558Z,3.86
2023-01-04T07:42:18.435Z,3.91
2023-01-04T07:44:46.823Z,3.90
2023-01-04T07:47:16.631Z,3.79
2023-01-04T07:49:44.992Z,3.85
2023-01-04T07:52:13.302Z,3.94
2023-01-04T07:54:41.630Z,4.05
2023-01-04T07:57:10.089Z,4.13
2023-01-04T07:59:38.646Z,4.10
2023-01-04T08:02:07.370Z,4.20
2023-01-04T08:04:37.282Z,4.26
2023-01-04T08:07:06.379Z,4.37
2023-01-04T08:09:38.137Z,4.36
2023-01-04T08:12:06.649Z,4.38
2023-01-04T08:14:34.963Z,4.36
2023-01-04T08:17:03.356Z,4.41
2023-01-04T08:19:31.745Z,4.51
2023-01-04T08:22:01.491Z,4.66
2023-01-04T08:24:30.133Z,4.70
2023-01-04T08:26:59.217Z,4.63
2023-01-04T08:29:34.358Z,4.71
2023-01-04T08:32:03.325Z,4.79
2023-01-04T08:34:32.775Z,4.93
2023-01-04T08:37:02.557Z,5.05
2023-01-04T08:39:35.365Z,5.08
2023-01-04T08:42:18.842Z,5.22
2023-01-04T08:44:51.855Z,5.33
2023-01-04T08:47:22.624Z,5.32
2023-01-04T08:49:50.957Z,5.38
2023-01-04T08:52:21.707Z,5.46
2023-01-04T08:54:50.152Z,5.45
2023-01-04T08:57:19.197Z,5.43
2023-01-04T08:59:47.509Z,5.56
2023-01-04T09:02:22.268Z,5.66
2023-01-04T09:04:51.428Z,5.65
2023-01-04T09:07:21.216Z,5.63
2023-01-04T09:09:49.597Z,5.64
2023-01-04T09:12:17.960Z,5.79
2023-01-04T09:14:46.451Z,5.90
2023-01-04T09:17:14.845Z,6.01
2023-01-04T09:19:43.325Z,6.10
2023-01-04T09:22:11.758Z,6.24
2023-01-04T09:24:41.517Z,6.37
2023-01-04T09:27:09.896Z,6.38
2023-01-04T09:29:38.293Z,6.42
2023-01-04T09:32:09.109Z,6.51
2023-01-04T09:34:41.300Z,6.59
2023-01-04T09:37:09.684Z,6.73
2023-01-04T09:39:38.110Z,6.89
2023-01-04T09:42:22.727Z,7.00
2023-01-04T09:45:22.394Z,7.07
2023-01-04T09:47:47.673Z,7.19
2023-01-04T09:50:19.881Z,7.20
2023-01-04T09:52:57.619Z,7.18
2023-01-04T09:55:39.168Z,7.13
2023-01-04T09:58:23.396Z,7.15
2023-01-04T10:00:56.641Z,7.16
2023-01-04T10:03:28.892Z,7.22
2023-01-04T10:05:58.018Z,7.31
2023-01-04T10:08:26.685Z,7.38
2023-01-04T10:11:08.621Z,7.44
2023-01-04T10:13:53.417Z,7.47
2023-01-04T10:17:11.099Z,7.59
2023-01-04T10:22:37.192Z,7.85
2023-01-04T10:25:21.488Z,7.85
2023-01-04T10:28:04.531Z,7.96
2023-01-04T10:30:41.381Z,8.04
2023-01-04T10:33:14.196Z,8.09
2023-01-04T10:35:45.517Z,8.13
2023-01-04T10:38:18.919Z,8.15
2023-01-04T10:40:48.835Z,8.13
2023-01-04T10:43:26.819Z,8.19
2023-01-04T10:46:03.487Z,8.22
2023-01-04T10:48:41.644Z,8.24
2023-01-04T10:51:11.528Z,8.28
2023-01-04T10:53:45.448Z,8.32
2023-01-04T10:56:23.490Z,8.39
2023-01-04T10:59:03.095Z,8.47
2023-01-04T11:01:38.303Z,8.48
2023-01-04T11:04:12.456Z,8.52
2023-01-04T11:06:44.285Z,8.60
2023-01-04T11:09:24.582Z,8.70
2023-01-04T11:11:56.226Z,8.80
2023-01-04T11:14:28.495Z,8.82
2023-01-04T11:17:05.503Z,8.78
2023-01-04T11:19:34.833Z,8.81
2023-01-04T11:22:12.159Z,8.84
2023-01-04T11:25:07.622Z,8.86
2023-01-04T11:27:43.045Z,8.85
2023-01-04T11:30:18.548Z,8.90
2023-01-04T11:32:56.056Z,8.96
2023-01-04T11:35:43.197Z,8.97
2023-01-04T11:38:15.231Z,9.06
2023-01-04T11:40:54.976Z,9.10
2023-01-04T11:43:24.511Z,9.13
2023-01-04T11:45:58.945Z,9.16
2023-01-04T11:48:40.545Z,9.16
2023-01-04T11:51:20.037Z,9.16
2023-01-04T11:53:58.522Z,9.16
2023-01-04T11:56:29.179Z,9.15
2023-01-04T11:59:25.124Z,9.15
2023-01-04T12:02:19.288Z,9.13
2023-01-04T12:05:02.506Z,9.10
2023-01-04T12:07:33.623Z,9.08
2023-01-04T12:10:04.867Z,9.06
2023-01-04T12:12:35.182Z,9.05
2023-01-04T12:15:09.468Z,9.05
2023-01-04T12:17:47.553Z,9.03
2023-01-04T12:20:20.276Z,9.02
2023-01-04T12:22:49.034Z,9.05
2023-01-04T12:25:32.879Z,9.07
2023-01-04T12:28:01.900Z,9.08
2023-01-04T12:30:39.245Z,9.09
2023-01-04T12:33:47.336Z,9.09
2023-01-04T12:36:19.144Z,9.07
2023-01-04T12:39:02.646Z,9.06
2023-01-04T12:42:21.630Z,9.05
2023-01-04T12:45:17.049Z,9.05
2023-01-04T12:48:11.018Z,9.05
2023-01-04T12:51:46.834Z,9.04
2023-01-04T12:54:32.203Z,9.02
2023-01-04T12:57:25.567Z,9.01
2023-01-04T12:59:56.914Z,9.00
2023-01-04T13:02:27.622Z,8.97
2023-01-04T13:07:50.330Z,8.86
2023-01-04T13:10:32.731Z,8.86
2023-01-04T13:13:21.657Z,8.91
2023-01-04T13:16:03.938Z,8.91
2023-01-04T13:18:37.233Z,8.88
2023-01-04T13:21:13.044Z,8.88
2023-01-04T13:23:48.861Z,8.89
2023-01-04T13:26:48.488Z,8.87
2023-01-04T13:29:20.322Z,8.86
2023-01-04T13:31:55.711Z,8.85
2023-01-04T13:34:27.129Z,8.86
2023-01-04T13:37:06.446Z,8.89
2023-01-04T13:39:35.776Z,8.92
2023-01-04T13:42:08.067Z,8.94
2023-01-04T13:45:19.300Z,8.98
2023-01-04T13:47:52.220Z,8.98
2023-01-04T13:50:33.797Z,8.99
2023-01-04T13:53:07.670Z,9.02
2023-01-04T13:55:38.794Z,9.02
2023-01-04T13:58:18.023Z,9.04
2023-01-04T14:00:49.623Z,9.06
2023-01-04T14:03:28.210Z,9.06
2023-01-04T14:06:04.490Z,9.07
2023-01-04T14:08:37.623Z,9.08
2023-01-04T14:11:37.956Z,9.08
2023-01-04T14:14:22.254Z,9.07
2023-01-04T14:16:52.022Z,9.05
2023-01-04T14:19:42.416Z,9.04
2023-01-04T14:22:38.672Z,9.02
2023-01-04T14:25:48.712Z,9.01
2023-01-04T14:28:28.624Z,8.97
2023-01-04T14:31:15.228Z,8.93
2023-01-04T14:33:45.929Z,8.92
2023-01-04T14:36:19.691Z,8.90
2023-01-04T14:38:57.215Z,8.89
2023-01-04T14:41:29.307Z,8.87
2023-01-04T14:44:14.359Z,8.85
2023-01-04T14:46:47.208Z,8.86
2023-01-04T14:49:17.130Z,8.87
2023-01-04T14:51:48.597Z,8.88
2023-01-04T14:54:24.284Z,8.91
2023-01-04T14:56:54.514Z,8.91
2023-01-04T14:59:24.950Z,8.93
2023-01-04T15:01:56.725Z,8.94
2023-01-04T15:04:25.885Z,8.95
2023-01-04T15:06:56.257Z,8.96
2023-01-04T15:09:24.866Z,8.96
2023-01-04T15:11:56.030Z,8.95
2023-01-04T15:14:25.147Z,8.94
2023-01-04T15:16:55.151Z,8.95
2023-01-04T15:19:23.808Z,8.96
2023-01-04T15:21:52.174Z,8.96
2023-01-04T15:24:20.564Z,8.97
2023-01-04T15:26:49.245Z,8.98
2023-01-04T15:29:17.605Z,8.99
2023-01-04T15:31:46.081Z,8.99
2023-01-04T15:34:15.878Z,8.99
2023-01-04T15:36:44.732Z,8.98
2023-01-04T15:39:14.551Z,8.97
2023-01-04T15:42:05.746Z,8.93
2023-01-04T15:44:34.123Z,8.92
2023-01-04T15:47:02.566Z,8.91
2023-01-04T15:49:32.337Z,8.91
2023-01-04T15:52:01.081Z,8.92
2023-01-04T15:54:29.982Z,8.90
2023-01-04T15:56:58.709Z,8.89
2023-01-04T15:59:27.077Z,8.89
2023-01-04T16:01:55.522Z,8.91
2023-01-04T16:04:24.168Z,8.92
2023-01-04T16:06:53.952Z,8.92
2023-01-04T16:09:22.569Z,8.91
2023-01-04T16:12:08.701Z,8.92
2023-01-04T16:14:37.300Z,8.92
2023-01-04T16:17:05.679Z,8.93
2023-01-04T16:19:34.343Z,8.93
2023-01-04T16:22:04.574Z,8.93
2023-01-04T16:27:21.546Z,8.90
2023-01-04T16:29:50.834Z,8.90
2023-01-04T16:32:19.984Z,8.92
2023-01-04T16:34:50.221Z,8.95
2023-01-04T16:37:20.283Z,8.94
2023-01-04T16:40:07.719Z,8.92
2023-01-04T16:42:37.509Z,8.87
2023-01-04T16:45:07.323Z,8.82
2023-01-04T16:47:41.207Z,8.78
2023-01-04T16:50:10.767Z,8.78
2023-01-04T16:52:40.985Z,8.74
2023-01-04T16:55:10.819Z,8.71
2023-01-04T16:57:39.332Z,8.66
2023-01-04T17:00:09.336Z,8.64
2023-01-04T17:02:38.101Z,8.59
2023-01-04T17:05:07.594Z,8.57
2023-01-04T17:07:35.898Z,8.55
2023-01-04T17:10:06.365Z,8.53
2023-01-04T17:12:50.236Z,8.54
2023-01-04T17:18:08.036Z,8.50
2023-01-04T17:20:37.810Z,8.48
2023-01-04T17:23:06.198Z,8.46
2023-01-04T17:25:36.134Z,8.46
2023-01-04T17:28:04.548Z,8.45
2023-01-04T17:30:33.265Z,8.45
2023-01-04T17:33:01.640Z,8.46
2023-01-04T17:35:30.010Z,8.50
2023-01-04T17:37:58.375Z,8.54
2023-01-04T17:40:26.819Z,8.56
2023-01-04T17:42:56.703Z,8.58
2023-01-04T17:45:25.120Z,8.64
2023-01-04T17:47:54.176Z,8.69
2023-01-04T17:50:25.301Z,8.72
2023-01-04T17:52:53.665Z,8.73
2023-01-04T17:55:22.173Z,8.73
2023-01-04T17:57:50.567Z,8.75
2023-01-04T18:00:20.808Z,8.77
2023-01-04T18:02:49.462Z,8.81
2023-01-04T18:05:17.936Z,8.85
2023-01-04T18:07:46.449Z,8.85
2023-01-04T18:10:26.761Z,8.84
2023-01-04T18:13:03.494Z,8.82
2023-01-04T18:15:36.141Z,8.79
2023-01-04T18:18:12.082Z,8.77
2023-01-04T18:20:41.044Z,8.77
2023-01-04T18:23:18.994Z,8.74
2023-01-04T18:25:52.583Z,8.72
2023-01-04T18:28:24.504Z,8.72
2023-01-04T18:30:54.211Z,8.72
2023-01-04T18:33:22.824Z,8.70
2023-01-04T18:35:51.116Z,8.68
2023-01-04T18:38:19.500Z,8.68
2023-01-04T18:40:47.887Z,8.67
2023-01-04T18:43:16.281Z,8.69
2023-01-04T18:45:44.771Z,8.69
2023-01-04T18:48:14.548Z,8.67
2023-01-04T18:50:42.916Z,8.67
2023-01-04T18:53:11.288Z,8.67
2023-01-04T18:55:40.175Z,8.65
2023-01-04T18:58:08.590Z,8.62
2023-01-04T19:00:36.998Z,8.60
2023-01-04T19:03:05.525Z,8.59
2023-01-04T19:05:35.318Z,8.60
2023-01-04T19:08:04.360Z,8.58
2023-01-04T19:10:32.756Z,8.55
2023-01-04T19:13:01.102Z,8.51
2023-01-04T19:15:29.483Z,8.47
2023-01-04T19:17:58.222Z,8.43
2023-01-04T19:20:26.992Z,8.42
2023-01-04T19:22:56.801Z,8.41
2023-01-04T19:25:28.394Z,8.40
2023-01-04T19:27:57.281Z,8.39
2023-01-04T19:30:25.670Z,8.38
2023-01-04T19:32:54.063Z,8.39
2023-01-04T19:35:22.472Z,8.40
2023-01-04T19:37:50.864Z,8.43
2023-01-04T19:40:20.667Z,8.46
2023-01-04T19:42:49.247Z,8.47
2023-01-04T19:45:17.686Z,8.46
2023-01-04T19:47:46.460Z,8.45
2023-01-04T19:50:15.048Z,8.46
2023-01-04T19:52:43.415Z,8.45
2023-01-04T19:55:12.751Z,8.45
2023-01-04T19:57:42.872Z,8.45
2023-01-04T20:00:12.440Z,8.43
2023-01-04T20:02:48.258Z,8.41
2023-01-04T20:05:16.934Z,8.38
2023-01-04T20:07:45.525Z,8.35
2023-01-04T20:10:14.588Z,8.33
2023-01-04T20:12:44.847Z,8.32
2023-01-04T20:15:15.024Z,8.33
2023-01-04T20:17:43.402Z,8.34
2023-01-04T20:20:11.940Z,8.34
2023-01-04T20:22:40.713Z,8.33
2023-01-04T20:25:09.709Z,8.33
2023-01-04T20:27:40.489Z,8.35
2023-01-04T20:30:11.674Z,8.38
2023-01-04T20:32:40.351Z,8.39
2023-01-04T20:35:09.262Z,8.39
2023-01-04T20:37:37.782Z,8.39
2023-01-04T20:40:07.314Z,8.41
2023-01-04T20:42:53.279Z,8.41
2023-01-04T20:45:22.980Z,8.42
2023-01-04T20:47:51.360Z,8.40
2023-01-04T20:50:19.773Z,8.40
2023-01-04T20:52:48.298Z,8.40
2023-01-04T20:55:17.783Z,8.40
2023-01-04T20:57:46.278Z,8.39
2023-01-04T21:00:16.034Z,8.39
2023-01-04T21:02:45.964Z,8.40
2023-01-04T21:05:14.519Z,8.42
2023-01-04T21:07:43.107Z,8.41
2023-01-04T21:10:11.463Z,8.39
2023-01-04T21:12:40.040Z,8.40
2023-01-04T21:15:09.155Z,8.45
2023-01-04T21:17:38.206Z,8.50
2023-01-04T21:20:08.938Z,8.51
2023-01-04T21:22:37.410Z,8.50
2023-01-04T21:25:06.677Z,8.47
2023-01-04T21:27:35.729Z,8.47
2023-01-04T21:30:04.731Z,8.50
2023-01-04T21:32:34.203Z,8.49
2023-01-04T21:35:02.574Z,8.48
2023-01-04T21:37:34.205Z,8.47
2023-01-04T21:40:02.564Z,8.52
2023-01-04T21:42:31.075Z,8.53
2023-01-04T21:44:59.411Z,8.52
2023-01-04T21:47:28.808Z,8.52
2023-01-04T21:49:57.138Z,8.52
2023-01-04T21:52:25.667Z,8.53
2023-01-04T21:54:55.715Z,8.54
2023-01-04T21:57:24.123Z,8.57
2023-01-04T21:59:52.486Z,8.59
2023-01-04T22:02:21.432Z,8.57
2023-01-04T22:04:49.839Z,8.55
2023-01-04T22:07:18.516Z,8.55
2023-01-04T22:09:47.818Z,8.56
2023-01-04T22:12:21.356Z,8.57
2023-01-04T22:14:49.734Z,8.60
2023-01-04T22:17:18.308Z,8.63
2023-01-04T22:19:46.680Z,8.65
2023-01-04T22:22:14.961Z,8.66
2023-01-04T22:24:43.288Z,8.68
2023-01-04T22:27:11.614Z,8.71
2023-01-04T22:29:41.360Z,8.69
2023-01-04T22:32:09.682Z,8.70
2023-01-04T22:34:38.053Z,8.72
2023-01-04T22:37:06.397Z,8.73
2023-01-04T22:39:34.734Z,8.74
2023-01-04T22:42:03.105Z,8.75
2023-01-04T22:44:31.740Z,8.75
2023-01-04T22:47:01.479Z,8.73
2023-01-04T22:49:30.082Z,8.72
2023-01-04T22:51:58.843Z,8.71
2023-01-04T22:54:27.179Z,8.68
2023-01-04T22:56:55.517Z,8.70
2023-01-04T22:59:25.263Z,8.71
2023-01-04T23:01:54.066Z,8.72
2023-01-04T23:04:23.856Z,8.70
2023-01-04T23:06:52.297Z,8.70
2023-01-04T23:09:20.633Z,8.68
2023-01-04T23:11:48.981Z,8.68
2023-01-04T23:14:18.624Z,8.68
2023-01-04T23:16:47.406Z,8.69
2023-01-04T23:19:15.905Z,8.70
2023-01-04T23:21:45.602Z,8.69
2023-01-04T23:24:15.718Z,8.69
2023-01-04T23:26:47.168Z,8.68
2023-01-04T23:29:15.572Z,8.69
2023-01-04T23:31:44.047Z,8.69
2023-01-04T23:34:13.304Z,8.69
2023-01-04T23:36:42.639Z,8.70
2023-01-04T23:39:14.930Z,8.70
2023-01-04T23:41:47.031Z,8.69
2023-01-04T23:44:18.270Z,8.67
2023-01-04T23:46:47.308Z,8.65
2023-01-04T23:49:15.671Z,8.65
2023-01-04T23:51:44.263Z,8.65
2023-01-04T23:54:14.065Z,8.63
2023-01-04T23:56:42.556Z,8.63
2023-01-04T23:59:11.390Z,8.63
